Time;durP1;ratioP1;P1;durP2;ratioP2;P2;SDS_P1;SDS_P2;PMS_P1;PMS_P2;Temp;Humidity;BMP_temperature;BMP_pressure;BME280_temperature;BME280_humidity;BME280_pressure;Samples;Min_cycle;Max_cycle;Signal;HPM_P1;HPM_P2
2021/09/18 00:02:20;;;;;;;;;;;;;;;1.98;63.13;100608.88;5105326;28;19920;-77
2021/09/18 00:04:46;;;;;;;;;;;;;;;2.01;63.58;100611.53;5099740;28;19937;-76
2021/09/18 00:07:12;;;;;;;;;;;;;;;2.04;63.42;100609.97;5102738;28;21082;-77
2021/09/18 00:09:37;;;;;;;;;;;;;;;2.02;63.53;100608.13;5099859;28;19919;-77
2021/09/18 00:12:03;;;;;;;;;;;;;;;2.02;63.37;100616.75;5098985;28;20531;-76
2021/09/18 00:14:28;;;;;;;;;;;;;;;2.03;63.73;100610.78;5100622;28;19974;-78
2021/09/18 00:16:54;;;;;;;;;;;;;;;2.01;63.23;100612.41;5103948;28;20029;-76
2021/09/18 00:19:20;;;;;;;;;;;;;;;1.96;63.70;100611.34;5100455;28;19920;-77
2021/09/18 00:21:45;;;;;;;;;;;;;;;1.92;63.45;100612.94;5070392;28;20453;-75
2021/09/18 00:24:11;;;;;;;;;;;;;;;1.90;63.63;100613.66;5082345;28;20656;-76
2021/09/18 00:26:37;;;;;;;;;;;;;;;1.91;63.63;100608.63;5090657;28;20018;-76
2021/09/18 00:29:10;;;;;;;;;;;;;;;1.94;63.77;100611.31;5090345;28;19920;-79
2021/09/18 00:31:35;;;;;;;;;;;;;;;2.04;63.90;100615.09;5101611;28;19931;-77
2021/09/18 00:34:01;;;;;;;;;;;;;;;2.06;63.80;100618.63;5082075;28;20454;-76
2021/09/18 00:36:27;;;;;;;;;;;;;;;2.07;63.72;100614.34;5101191;28;19959;-76
2021/09/18 00:38:52;;;;;;;;;;;;;;;2.10;63.86;100617.03;5098005;28;19924;-77
2021/09/18 00:41:18;;;;;;;;;;;;;;;2.11;63.97;100614.50;5088175;28;19969;-76
2021/09/18 00:43:53;;;;;;;;;;;;;;;2.05;63.45;100616.88;5099415;28;19971;-77
2021/09/18 00:46:19;;;;;;;;;;;;;;;2.11;64.20;100622.22;5099825;28;19938;-76
2021/09/18 00:48:45;;;;;;;;;;;;;;;2.22;64.16;100616.63;5100850;28;19924;-77
2021/09/18 00:51:11;;;;;;;;;;;;;;;2.23;64.45;100620.94;5086464;28;19924;-76
2021/09/18 00:53:37;;;;;;;;;;;;;;;2.18;63.54;100625.91;5085296;28;19920;-77
2021/09/18 00:56:03;;;;;;;;;;;;;;;2.20;64.44;100633.66;5087091;28;19924;-76
2021/09/18 00:58:28;;;;;;;;;;;;;;;2.17;63.89;100620.69;5082311;28;20031;-76
2021/09/18 01:00:54;;;;;;;;;;;;;;;2.18;64.41;100628.47;5079267;28;20365;-76
2021/09/18 01:03:20;;;;;;;;;;;;;;;2.23;64.60;100633.78;5085556;28;20011;-76
2021/09/18 01:05:45;;;;;;;;;;;;;;;2.27;64.74;100635.66;5080943;28;19924;-76
2021/09/18 01:08:11;;;;;;;;;;;;;;;2.33;64.75;100633.31;5101412;28;20255;-77
2021/09/18 01:10:37;;;;;;;;;;;;;;;2.35;64.45;100641.94;5101412;28;19919;-74
2021/09/18 01:13:05;;;;;;;;;;;;;;;2.37;64.11;100642.03;5080801;28;19973;-76
2021/09/18 01:15:32;;;;;;;;;;;;;;;2.31;64.26;100639.22;5086145;28;19924;-76
2021/09/18 01:17:58;;;;;;;;;;;;;;;2.27;64.86;100643.38;5079183;28;19973;-75
2021/09/18 01:20:24;;;;;;;;;;;;;;;2.31;64.77;100641.78;5078891;28;20022;-76
2021/09/18 01:22:51;;;;;;;;;;;;;;;2.30;64.94;100646.06;5064320;28;19927;-76
2021/09/18 01:25:17;;;;;;;;;;;;;;;2.27;64.87;100645.94;5066009;28;19923;-75
2021/09/18 01:27:43;;;;;;;;;;;;;;;2.27;64.97;100648.50;5080149;28;19920;-75
2021/09/18 01:30:09;;;;;;;;;;;;;;;2.30;64.90;100646.06;5079233;28;20353;-77
2021/09/18 01:32:35;;;;;;;;;;;;;;;2.22;64.86;100644.88;5095882;28;19928;-75
2021/09/18 01:35:00;;;;;;;;;;;;;;;2.25;65.29;100652.72;5096433;28;19924;-76
2021/09/18 01:37:27;;;;;;;;;;;;;;;2.18;64.37;100651.59;5099630;28;19979;-75
2021/09/18 01:39:55;;;;;;;;;;;;;;;2.24;65.54;100646.69;5100267;28;19973;-78
2021/09/18 01:42:21;;;;;;;;;;;;;;;2.24;65.03;100644.09;5079815;28;19924;-77
2021/09/18 01:44:46;;;;;;;;;;;;;;;2.25;65.06;100655.28;5099035;28;19923;-77
2021/09/18 01:47:12;;;;;;;;;;;;;;;2.30;65.19;100658.91;5100234;28;20146;-76
2021/09/18 01:49:37;;;;;;;;;;;;;;;2.31;65.29;100658.09;5083999;28;20447;-76
2021/09/18 01:52:08;;;;;;;;;;;;;;;2.34;65.50;100650.47;5085065;28;19927;-76
2021/09/18 01:54:34;;;;;;;;;;;;;;;2.36;65.35;100656.53;5067046;28;20262;-74
2021/09/18 01:57:05;;;;;;;;;;;;;;;2.41;65.03;100655.03;5099131;28;20014;-77
2021/09/18 01:59:30;;;;;;;;;;;;;;;2.36;64.88;100651.41;5068521;28;19924;-74
2021/09/18 02:01:56;;;;;;;;;;;;;;;2.40;65.64;100650.72;5098195;28;19931;-77
2021/09/18 02:04:22;;;;;;;;;;;;;;;2.39;65.14;100653.25;5061928;28;20445;-76
2021/09/18 02:06:47;;;;;;;;;;;;;;;2.39;65.53;100653.25;5081885;28;20009;-77
2021/09/18 02:09:13;;;;;;;;;;;;;;;2.36;65.68;100656.53;5088629;28;19923;-78
2021/09/18 02:11:38;;;;;;;;;;;;;;;2.33;65.21;100653.84;5100606;28;19920;-78
2021/09/18 02:14:04;;;;;;;;;;;;;;;2.38;65.88;100657.47;5081178;28;19969;-77
2021/09/18 02:16:29;;;;;;;;;;;;;;;2.37;65.73;100655.72;5085087;28;19927;-77
2021/09/18 02:18:55;;;;;;;;;;;;;;;2.37;65.25;100657.44;5099203;28;20030;-76
2021/09/18 02:21:21;;;;;;;;;;;;;;;2.34;65.59;100650.47;5067929;28;19927;-77
2021/09/18 02:23:48;;;;;;;;;;;;;;;2.36;65.91;100660.81;5099415;28;19949;-76
2021/09/18 02:26:14;;;;;;;;;;;;;;;2.30;65.68;100664.03;5081094;28;20034;-76
2021/09/18 02:28:39;;;;;;;;;;;;;;;2.32;65.83;100659.81;5062565;28;20034;-75
2021/09/18 02:31:05;;;;;;;;;;;;;;;2.36;65.88;100659.13;5083832;28;19923;-76
2021/09/18 02:33:30;;;;;;;;;;;;;;;2.39;65.74;100666.09;5096027;28;19927;-77
2021/09/18 02:35:56;;;;;;;;;;;;;;;2.36;65.70;100669.41;5099575;28;19924;-77
2021/09/18 02:38:21;;;;;;;;;;;;;;;2.33;65.68;100671.84;5076870;28;19924;-75
2021/09/18 02:40:52;;;;;;;;;;;;;;;2.41;66.28;100673.03;5066960;28;19972;-76
2021/09/18 02:43:18;;;;;;;;;;;;;;;2.45;66.18;100668.00;5095322;28;19924;-77
2021/09/18 02:45:44;;;;;;;;;;;;;;;2.47;66.01;100669.81;5097484;28;19920;-76
2021/09/18 02:48:09;;;;;;;;;;;;;;;2.46;66.06;100675.75;5079274;28;19927;-77
2021/09/18 02:50:36;;;;;;;;;;;;;;;2.53;66.21;100674.31;5079741;28;19920;-78
2021/09/18 02:53:02;;;;;;;;;;;;;;;2.57;65.95;100681.31;5107460;28;19919;-77
2021/09/18 02:55:27;;;;;;;;;;;;;;;2.65;66.03;100676.47;5071026;28;19931;-76
2021/09/18 02:57:53;;;;;;;;;;;;;;;2.69;66.43;100680.88;5077194;28;19924;-76
2021/09/18 03:00:19;;;;;;;;;;;;;;;2.70;65.98;100680.97;5076981;28;19931;-76
2021/09/18 03:02:45;;;;;;;;;;;;;;;2.76;66.33;100684.59;5076877;28;20375;-78
2021/09/18 03:05:11;;;;;;;;;;;;;;;2.78;66.31;100678.66;5068593;28;19927;-76
2021/09/18 03:07:37;;;;;;;;;;;;;;;2.80;66.22;100686.44;5072389;28;19976;-77
2021/09/18 03:10:03;;;;;;;;;;;;;;;2.83;66.17;100686.53;5096073;28;19924;-78
2021/09/18 03:12:28;;;;;;;;;;;;;;;2.88;66.41;100695.31;5075573;28;19955;-76
2021/09/18 03:14:54;;;;;;;;;;;;;;;2.94;66.38;100694.66;5063573;28;20358;-76
2021/09/18 03:17:19;;;;;;;;;;;;;;;2.99;66.79;100698.28;5080174;28;19924;-75
2021/09/18 03:19:45;;;;;;;;;;;;;;;3.03;66.30;100694.09;5099084;28;20304;-75
2021/09/18 03:22:11;;;;;;;;;;;;;;;3.07;66.13;100695.97;5095366;28;19920;-76
2021/09/18 03:24:36;;;;;;;;;;;;;;;3.11;66.45;100698.69;5086122;28;19946;-77
2021/09/18 03:27:02;;;;;;;;;;;;;;;3.12;65.69;100704.75;5092825;28;19935;-78
2021/09/18 03:29:28;;;;;;;;;;;;;;;3.22;66.32;100701.66;5083293;28;19920;-75
2021/09/18 03:31:53;;;;;;;;;;;;;;;3.33;66.10;100698.59;5103475;28;19935;-78
2021/09/18 03:34:19;;;;;;;;;;;;;;;3.43;66.21;100695.50;5091907;28;19978;-76
2021/09/18 03:36:44;;;;;;;;;;;;;;;3.53;66.13;100689.88;5088826;28;19976;-77
2021/09/18 03:39:11;;;;;;;;;;;;;;;3.63;65.89;100692.75;5080566;28;19920;-76
2021/09/18 03:41:36;;;;;;;;;;;;;;;3.73;65.65;100702.53;5067097;28;19924;-78
2021/09/18 03:44:02;;;;;;;;;;;;;;;3.84;66.20;100702.88;5079656;28;20291;-77
2021/09/18 03:46:29;;;;;;;;;;;;;;;3.96;65.97;100705.88;5078469;28;19919;-79
2021/09/18 03:48:54;;;;;;;;;;;;;;;4.07;65.37;100707.09;5078914;28;19927;-76
2021/09/18 03:51:20;;;;;;;;;;;;;;;4.19;65.41;100709.19;5059100;28;19919;-77
2021/09/18 03:53:45;;;;;;;;;;;;;;;4.32;66.05;100712.13;5093802;28;20126;-78
2021/09/18 03:56:11;;;;;;;;;;;;;;;4.43;65.24;100715.94;5092917;28;19924;-76
2021/09/18 03:58:36;;;;;;;;;;;;;;;4.54;65.42;100713.69;5098130;28;20030;-76
2021/09/18 04:01:02;;;;;;;;;;;;;;;4.68;65.21;100716.69;5082555;28;19926;-77
2021/09/18 04:03:28;;;;;;;;;;;;;;;4.78;65.31;100713.53;5101265;28;19920;-78
2021/09/18 04:05:53;;;;;;;;;;;;;;;4.96;65.94;100720.94;5070177;28;20093;-78
2021/09/18 04:08:19;;;;;;;;;;;;;;;5.20;65.27;100722.47;5087873;28;19920;-75
2021/09/18 04:10:45;;;;;;;;;;;;;;;5.43;65.02;100728.25;5077584;28;19943;-74
2021/09/18 04:13:10;;;;;;;;;;;;;;;5.62;65.19;100726.16;5077778;28;19945;-76
2021/09/18 04:15:36;;;;;;;;;;;;;;;5.77;64.43;100724.81;5103462;28;20050;-77
2021/09/18 04:18:01;;;;;;;;;;;;;;;5.95;64.49;100725.25;5098728;28;20065;-76
2021/09/18 04:20:27;;;;;;;;;;;;;;;6.18;64.50;100725.00;5076090;28;20429;-77
2021/09/18 04:22:53;;;;;;;;;;;;;;;6.33;63.72;100727.91;5069359;28;19930;-77
2021/09/18 04:25:18;;;;;;;;;;;;;;;6.54;63.50;100723.22;5053007;28;19950;-77
2021/09/18 04:27:44;;;;;;;;;;;;;;;6.84;63.70;100728.19;5082267;28;19920;-78
2021/09/18 04:30:10;;;;;;;;;;;;;;;7.17;62.87;100728.84;5100036;28;19962;-76
2021/09/18 04:32:36;;;;;;;;;;;;;;;7.52;62.90;100721.75;5085659;28;20037;-78
2021/09/18 04:35:02;;;;;;;;;;;;;;;7.79;62.12;100715.31;5075304;28;20023;-76
2021/09/18 04:37:27;;;;;;;;;;;;;;;8.13;61.85;100720.19;5079270;28;19924;-78
2021/09/18 04:39:53;;;;;;;;;;;;;;;8.44;61.84;100720.63;5079068;28;19924;-77
2021/09/18 04:42:18;;;;;;;;;;;;;;;8.69;61.29;100711.53;5077590;28;19927;-77
2021/09/18 04:44:44;;;;;;;;;;;;;;;9.06;61.01;100718.03;5082710;28;19920;-76
2021/09/18 04:47:09;;;;;;;;;;;;;;;9.76;60.96;100711.84;5077157;28;20291;-81
2021/09/18 04:49:37;;;;;;;;;;;;;;;11.26;60.03;100711.88;5079005;28;19966;-76
2021/09/18 04:52:03;;;;;;;;;;;;;;;12.83;57.74;100697.06;5059334;28;19931;-77
2021/09/18 04:54:28;;;;;;;;;;;;;;;14.27;56.54;100695.22;5083245;28;19920;-77
2021/09/18 04:56:54;;;;;;;;;;;;;;;15.29;54.48;100698.41;5084083;28;20378;-78
2021/09/18 04:59:20;;;;;;;;;;;;;;;16.26;52.02;100682.91;5067599;28;20303;-77
2021/09/18 05:01:45;;;;;;;;;;;;;;;17.23;50.87;100687.94;5082469;28;19961;-79
2021/09/18 05:04:11;;;;;;;;;;;;;;;18.00;49.39;100682.63;5068094;28;19931;-76
2021/09/18 05:06:37;;;;;;;;;;;;;;;18.85;48.05;100679.47;5082639;28;19989;-77
2021/09/18 05:09:03;;;;;;;;;;;;;;;19.21;46.04;100666.09;5077256;28;19962;-77
2021/09/18 05:11:29;;;;;;;;;;;;;;;19.75;45.31;100671.41;5081560;28;19924;-77
2021/09/18 05:13:57;;;;;;;;;;;;;;;20.17;43.82;100673.56;5078382;28;19916;-77
2021/09/18 05:16:23;;;;;;;;;;;;;;;20.10;44.02;100671.16;5075149;28;19924;-77
2021/09/18 05:18:49;;;;;;;;;;;;;;;20.19;43.26;100677.94;5078656;28;19931;-77
2021/09/18 05:21:14;;;;;;;;;;;;;;;20.21;43.50;100676.94;5079688;28;19938;-76
2021/09/18 05:23:40;;;;;;;;;;;;;;;20.41;43.85;100665.66;5065707;28;19927;-78
2021/09/18 05:26:12;;;;;;;;;;;;;;;20.80;43.05;100671.34;5066567;28;20177;-76
2021/09/18 05:28:38;;;;;;;;;;;;;;;20.92;41.67;100671.75;5078138;28;20054;-76
2021/09/18 05:31:03;;;;;;;;;;;;;;;20.94;41.96;100679.63;5082243;28;19949;-77
2021/09/18 05:33:29;;;;;;;;;;;;;;;21.72;41.74;100677.44;5060594;28;19927;-78
2021/09/18 05:35:56;;;;;;;;;;;;;;;22.04;39.91;100679.66;5081072;28;19967;-77
2021/09/18 05:38:22;;;;;;;;;;;;;;;23.00;39.71;100678.06;5060653;28;20130;-75
2021/09/18 05:40:48;;;;;;;;;;;;;;;24.00;38.28;100669.69;5080573;28;19924;-77
2021/09/18 05:43:14;;;;;;;;;;;;;;;24.81;37.17;100666.34;5076519;28;19924;-79
2021/09/18 05:45:39;;;;;;;;;;;;;;;25.27;34.47;100664.72;5095349;28;20004;-77
2021/09/18 05:48:08;;;;;;;;;;;;;;;24.46;34.14;100668.22;5077603;28;19956;-77
2021/09/18 05:50:34;;;;;;;;;;;;;;;25.13;34.85;100669.97;5077774;28;20054;-77
2021/09/18 05:52:59;;;;;;;;;;;;;;;25.67;33.93;100658.91;5075348;28;19970;-78
2021/09/18 05:55:25;;;;;;;;;;;;;;;25.41;34.32;100663.91;5065360;28;19924;-78
2021/09/18 05:57:51;;;;;;;;;;;;;;;25.22;34.61;100667.66;5078243;28;19927;-76
2021/09/18 06:00:17;;;;;;;;;;;;;;;25.53;34.06;100662.38;5076885;28;19980;-78
2021/09/18 06:02:45;;;;;;;;;;;;;;;25.69;32.99;100665.03;5077176;28;19928;-78
2021/09/18 06:05:11;;;;;;;;;;;;;;;26.00;33.41;100666.72;5082160;28;20046;-77
2021/09/18 06:07:37;;;;;;;;;;;;;;;25.63;31.93;100663.53;5093831;28;19920;-78
2021/09/18 06:10:03;;;;;;;;;;;;;;;25.06;32.82;100664.09;5081579;28;20001;-79
2021/09/18 06:12:29;;;;;;;;;;;;;;;26.10;31.95;100663.47;5048040;28;20018;-78
2021/09/18 06:14:55;;;;;;;;;;;;;;;26.64;30.90;100670.03;5081367;28;20819;-76
2021/09/18 06:17:23;;;;;;;;;;;;;;;26.59;31.17;100662.31;5076546;28;20486;-79
2021/09/18 06:19:48;;;;;;;;;;;;;;;27.37;30.32;100663.56;5078701;28;19920;-77
2021/09/18 06:22:17;;;;;;;;;;;;;;;27.98;28.54;100663.13;5062357;28;20600;-79
2021/09/18 06:24:44;;;;;;;;;;;;;;;27.79;29.41;100671.53;5084475;28;20307;-78
2021/09/18 06:27:09;;;;;;;;;;;;;;;27.53;29.92;100671.47;5084456;28;19920;-78
2021/09/18 06:29:37;;;;;;;;;;;;;;;27.49;28.92;100668.16;5060079;28;20015;-78
2021/09/18 06:32:11;;;;;;;;;;;;;;;27.06;29.27;100668.25;5078132;28;19924;-78
2021/09/18 06:34:37;;;;;;;;;;;;;;;27.40;29.53;100662.53;5070369;28;19936;-78
2021/09/18 06:37:03;;;;;;;;;;;;;;;27.56;27.86;100665.91;5061889;28;19943;-78
2021/09/18 06:39:29;;;;;;;;;;;;;;;28.84;27.91;100663.41;5058232;28;19924;-78
2021/09/18 06:41:58;;;;;;;;;;;;;;;29.58;27.22;100662.50;5043323;28;19929;-79
2021/09/18 06:44:30;;;;;;;;;;;;;;;29.88;26.72;100659.28;5059561;28;20007;-77
2021/09/18 06:46:56;;;;;;;;;;;;;;;30.91;24.55;100654.84;5074754;28;19988;-77
2021/09/18 06:49:22;;;;;;;;;;;;;;;31.06;24.68;100663.50;5058485;28;19927;-77
2021/09/18 06:51:47;;;;;;;;;;;;;;;30.89;24.66;100670.25;5061759;28;20291;-77
2021/09/18 06:54:13;;;;;;;;;;;;;;;31.36;24.37;100669.16;5065246;28;19988;-79
2021/09/18 06:56:38;;;;;;;;;;;;;;;31.67;22.84;100656.69;5069786;28;19925;-78
2021/09/18 06:59:04;;;;;;;;;;;;;;;31.51;23.88;100667.03;5049790;28;19920;-77
2021/09/18 07:01:30;;;;;;;;;;;;;;;31.41;22.50;100661.56;5081620;28;19932;-78
2021/09/18 07:03:55;;;;;;;;;;;;;;;31.74;22.17;100651.66;5048646;28;20513;-79
2021/09/18 07:06:21;;;;;;;;;;;;;;;32.01;23.26;100650.28;5071928;28;20007;-78
2021/09/18 07:08:47;;;;;;;;;;;;;;;33.53;21.46;100652.19;5070994;28;19924;-78
2021/09/18 07:11:13;;;;;;;;;;;;;;;33.49;21.04;100638.09;5065326;28;20317;-78
2021/09/18 07:13:39;;;;;;;;;;;;;;;35.09;21.00;100634.53;5048667;28;19927;-78
2021/09/18 07:16:05;;;;;;;;;;;;;;;36.36;18.45;100636.16;5061971;28;19932;-78
2021/09/18 07:18:30;;;;;;;;;;;;;;;35.34;18.41;100642.03;5061186;28;20241;-77
2021/09/18 07:20:56;;;;;;;;;;;;;;;34.06;19.07;100640.88;5079917;28;19987;-78
2021/09/18 07:23:21;;;;;;;;;;;;;;;32.23;21.00;100640.31;5057005;28;20395;-77
2021/09/18 07:25:47;;;;;;;;;;;;;;;32.22;21.38;100639.47;5056273;28;19928;-78
2021/09/18 07:28:13;;;;;;;;;;;;;;;31.48;21.77;100635.03;5061410;28;19992;-77
2021/09/18 07:30:38;;;;;;;;;;;;;;;32.30;21.46;100636.16;5059760;28;19927;-78
2021/09/18 07:33:04;;;;;;;;;;;;;;;33.05;20.67;100633.94;5055879;28;19976;-78
2021/09/18 07:35:30;;;;;;;;;;;;;;;34.20;20.14;100631.44;5076373;28;19925;-79
2021/09/18 07:37:58;;;;;;;;;;;;;;;35.21;18.19;100631.59;5060758;28;20908;-78
2021/09/18 07:40:23;;;;;;;;;;;;;;;34.91;19.01;100625.56;5045823;28;19966;-78
2021/09/18 07:42:49;;;;;;;;;;;;;;;35.44;17.21;100616.59;5061418;28;19924;-78
2021/09/18 07:45:15;;;;;;;;;;;;;;;34.31;17.50;100622.31;5062109;28;19970;-79
2021/09/18 07:47:42;;;;;;;;;;;;;;;33.83;19.41;100625.97;5058237;28;19928;-77
2021/09/18 07:50:08;;;;;;;;;;;;;;;33.13;19.12;100633.25;5037414;28;19925;-78
2021/09/18 07:52:35;;;;;;;;;;;;;;;31.63;19.85;100632.88;5057456;28;19936;-78
2021/09/18 07:55:01;;;;;;;;;;;;;;;31.71;20.69;100619.63;5061709;28;20453;-79
2021/09/18 07:57:26;;;;;;;;;;;;;;;32.59;18.46;100608.44;5060486;28;19924;-78
2021/09/18 07:59:54;;;;;;;;;;;;;;;33.22;18.37;100625.31;5062905;28;20004;-78
2021/09/18 08:02:20;;;;;;;;;;;;;;;31.91;19.78;100620.63;5076362;28;19928;-77
2021/09/18 08:04:45;;;;;;;;;;;;;;;32.33;19.72;100625.09;5063400;28;19921;-78
2021/09/18 08:07:12;;;;;;;;;;;;;;;32.35;18.51;100609.66;5062370;28;19970;-78
2021/09/18 08:09:44;;;;;;;;;;;;;;;30.68;19.32;100624.47;5058285;28;20105;-76
2021/09/18 08:12:11;;;;;;;;;;;;;;;29.23;20.45;100633.81;5081094;28;19928;-77
2021/09/18 08:14:39;;;;;;;;;;;;;;;26.57;20.54;100651.72;5080766;28;19920;-79
2021/09/18 08:17:05;;;;;;;;;;;;;;;24.27;22.55;100661.22;5060553;28;19932;-78
2021/09/18 08:19:31;;;;;;;;;;;;;;;23.82;23.81;100652.00;5074982;28;19927;-78
2021/09/18 08:21:56;;;;;;;;;;;;;;;23.86;23.77;100645.59;5073524;28;20376;-78
2021/09/18 08:24:27;;;;;;;;;;;;;;;23.27;23.65;100648.53;5060308;28;20023;-78
2021/09/18 08:26:56;;;;;;;;;;;;;;;22.43;23.96;100665.59;5048313;28;19921;-78
2021/09/18 08:29:25;;;;;;;;;;;;;;;21.56;24.34;100663.94;5031348;28;20387;-77
2021/09/18 08:31:51;;;;;;;;;;;;;;;21.25;24.39;100667.84;5045306;28;19921;-78
2021/09/18 08:34:19;;;;;;;;;;;;;;;21.14;24.87;100662.09;5078795;28;20347;-81
2021/09/18 08:36:56;;;;;;;;;;;;;;;22.22;24.84;100662.09;5080444;28;19934;-78
2021/09/18 08:39:22;;;;;;;;;;;;;;;23.98;23.17;100649.47;5101126;28;19990;-78
2021/09/18 08:41:48;;;;;;;;;;;;;;;25.84;21.11;100632.13;5069626;28;19955;-81
2021/09/18 08:44:16;;;;;;;;;;;;;;;27.04;20.63;100630.97;5071150;28;19954;-79
2021/09/18 08:46:43;;;;;;;;;;;;;;;27.91;20.80;100627.06;5099926;28;20466;-80
2021/09/18 08:49:10;;;;;;;;;;;;;;;28.08;19.94;100623.22;5063048;28;20358;-79
2021/09/18 08:51:46;;;;;;;;;;;;;;;27.69;19.76;100615.16;5067116;28;20329;-78
2021/09/18 08:54:12;;;;;;;;;;;;;;;25.73;21.26;100626.56;5085656;28;19977;-79
2021/09/18 08:56:38;;;;;;;;;;;;;;;24.40;22.27;100639.28;5071084;28;19935;-78
2021/09/18 08:59:04;;;;;;;;;;;;;;;25.34;22.12;100622.59;5100571;28;19920;-76
2021/09/18 09:01:31;;;;;;;;;;;;;;;25.92;22.05;100625.47;5069569;28;20459;-78
2021/09/18 09:03:58;;;;;;;;;;;;;;;27.86;19.79;100615.81;5080952;28;19927;-78
2021/09/18 09:06:23;;;;;;;;;;;;;;;29.10;19.24;100610.59;5084136;28;19923;-78
2021/09/18 09:09:06;;;;;;;;;;;;;;;30.30;18.88;100607.78;5102360;28;19941;-78
2021/09/18 09:11:32;;;;;;;;;;;;;;;29.95;17.01;100608.69;5085717;28;19965;-78
2021/09/18 09:14:08;;;;;;;;;;;;;;;27.88;20.01;100613.88;5089622;28;19919;-79
2021/09/18 09:16:54;;;;;;;;;;;;;;;26.77;19.96;100620.22;5083103;28;19924;-77
2021/09/18 09:19:21;;;;;;;;;;;;;;;27.19;20.92;100617.56;5095883;28;19920;-77
2021/09/18 09:21:47;;;;;;;;;;;;;;;27.25;20.50;100621.66;5114728;28;19930;-78
2021/09/18 09:24:17;;;;;;;;;;;;;;;26.50;21.23;100633.53;5060294;28;20031;-77
2021/09/18 09:27:02;;;;;;;;;;;;;;;25.77;19.92;100616.59;5088503;28;20331;-78
2021/09/18 09:29:40;;;;;;;;;;;;;;;25.07;21.36;100623.22;5099514;28;19920;-78
2021/09/18 09:32:24;;;;;;;;;;;;;;;25.73;21.59;100610.56;5080327;28;19943;-79
2021/09/18 09:34:51;;;;;;;;;;;;;;;26.60;20.37;100615.97;5078051;28;20571;-80
2021/09/18 09:37:17;;;;;;;;;;;;;;;28.38;20.12;100603.31;5066023;28;19924;-80
2021/09/18 09:40:20;;;;;;;;;;;;;;;;;;;;;
2021/09/18 09:43:24;;;;;;;;;;;;;;;28.38;19.16;100600.63;5067643;28;20019;-80
2021/09/18 09:45:56;;;;;;;;;;;;;;;28.62;18.81;100610.53;5049705;28;19947;-76
2021/09/18 09:48:22;;;;;;;;;;;;;;;28.56;19.42;100607.34;5061307;28;19927;-80
2021/09/18 09:51:49;;;;;;;;;;;;;;;27.81;19.50;100600.09;5046747;28;19920;-78
2021/09/18 09:53:51;;;;;;;;;;;;;;;28.54;20.19;100611.97;5066723;28;20005;-78
2021/09/18 09:56:25;;;;;;;;;;;;;;;28.26;19.18;100602.34;5070235;28;19924;-76
2021/09/18 09:58:54;;;;;;;;;;;;;;;29.38;18.32;100600.53;5048061;28;19928;-78
2021/09/18 10:01:28;;;;;;;;;;;;;;;29.65;19.11;100601.22;5052827;28;19920;-79
2021/09/18 10:03:53;;;;;;;;;;;;;;;29.28;17.83;100616.44;5068769;28;20458;-79
2021/09/18 10:06:20;;;;;;;;;;;;;;;27.81;19.13;100616.13;5063114;28;19920;-80
2021/09/18 10:08:49;;;;;;;;;;;;;;;27.00;20.10;100613.44;5050732;28;19977;-79
2021/09/18 10:11:30;;;;;;;;;;;;;;;27.05;19.75;100615.81;5063465;28;20291;-77
2021/09/18 10:14:02;;;;;;;;;;;;;;;25.99;20.36;100629.47;5075524;28;19931;-78
2021/09/18 10:16:28;;;;;;;;;;;;;;;23.84;20.57;100629.72;5063809;28;19938;-78
2021/09/18 10:19:30;;;;;;;;;;;;;;;22.64;22.96;100637.28;5069896;28;19924;-79
2021/09/18 10:25:38;;;;;;;;;;;;;;;20.84;23.28;100642.06;5066440;28;19927;-79
2021/09/18 10:28:27;;;;;;;;;;;;;;;19.63;24.50;100642.78;5057050;28;19921;-79
2021/09/18 10:31:04;;;;;;;;;;;;;;;19.16;24.77;100646.06;5075918;28;19924;-80
2021/09/18 10:33:46;;;;;;;;;;;;;;;19.14;25.88;100643.47;5050207;28;20306;-80
2021/09/18 10:36:15;;;;;;;;;;;;;;;19.18;26.01;100639.81;5029213;28;21068;-78
2021/09/18 10:38:44;;;;;;;;;;;;;;;19.34;25.93;100639.31;5068408;28;19966;-79
2021/09/18 10:41:20;;;;;;;;;;;;;;;19.73;25.57;100633.66;5065104;28;19971;-79
2021/09/18 10:44:26;;;;;;;;;;;;;;;19.81;25.11;100638.69;5063354;28;19927;-76
2021/09/18 10:47:01;;;;;;;;;;;;;;;19.23;25.27;100644.94;5082441;28;19920;-80
2021/09/18 10:49:33;;;;;;;;;;;;;;;18.66;26.30;100653.63;5070020;28;19920;-81
2021/09/18 10:52:17;;;;;;;;;;;;;;;18.34;26.48;100658.06;5046642;28;19920;-77
2021/09/18 10:55:10;;;;;;;;;;;;;;;18.43;26.53;100646.41;5114744;27;19994;-79
2021/09/18 10:57:51;;;;;;;;;;;;;;;18.47;27.08;100633.97;5058946;27;20368;-79
2021/09/18 11:00:29;;;;;;;;;;;;;;;18.81;26.79;100640.94;5078930;27;19946;-77
2021/09/18 11:03:51;;;;;;;;;;;;;;;18.37;26.94;100641.28;5032828;28;19921;-77
2021/09/18 11:17:00;;;;;;;;;;;;;;;17.60;28.29;100629.22;6051390;22;2115961;-73
2021/09/18 11:30:06;;;;;;;;;;;;;;;15.78;31.90;100629.44;6201951;22;2226897;-78
2021/09/18 11:33:04;;;;;;;;;;;;;;;15.96;31.29;100635.28;6272004;22;20427;-79
2021/09/18 11:36:00;;;;;;;;;;;;;;;15.79;30.76;100635.56;5110942;27;20008;-79
2021/09/18 11:39:07;;;;;;;;;;;;;;;15.43;31.64;100627.41;5080335;27;20384;-79
2021/09/18 11:41:43;;;;;;;;;;;;;;;15.20;31.54;100631.25;5069621;27;2063681;-77
2021/09/18 11:44:32;;;;;;;;;;;;;;;14.93;32.96;100641.22;5078214;27;19935;-77
2021/09/18 11:47:10;;;;;;;;;;;;;;;14.92;33.21;100634.25;5079211;27;19974;-78
2021/09/18 11:49:50;;;;;;;;;;;;;;;15.15;32.91;100622.56;5073614;27;19974;-79
2021/09/18 11:52:35;;;;;;;;;;;;;;;15.21;32.46;100628.63;5080957;27;19952;-79
2021/09/18 11:55:50;;;;;;;;;;;;;;;14.57;32.81;100625.94;5129454;27;19964;-78
2021/09/18 11:58:43;;;;;;;;;;;;;;;14.43;34.29;100635.72;5025062;27;2025360;-77
2021/09/18 12:01:33;;;;;;;;;;;;;;;14.43;33.86;100633.09;5117879;27;19920;-79
2021/09/18 12:04:36;;;;;;;;;;;;;;;14.42;34.11;100631.34;5135725;27;19928;-80
2021/09/18 12:07:29;;;;;;;;;;;;;;;14.37;34.13;100635.78;5101600;27;20024;-79
2021/09/18 12:10:35;;;;;;;;;;;;;;;14.34;34.02;100634.06;5057935;27;19999;-79
2021/09/18 12:24:11;;;;;;;;;;;;;;;13.30;35.09;100637.56;5966195;22;3975144;-81
2021/09/18 12:27:21;;;;;;;;;;;;;;;13.03;35.89;100625.56;5094137;27;2223601;-78
2021/09/18 12:30:05;;;;;;;;;;;;;;;12.92;36.67;100616.03;5100055;27;19989;-78
2021/09/18 12:32:59;;;;;;;;;;;;;;;13.13;36.74;100626.38;5077604;27;19946;-79
2021/09/18 12:36:20;;;;;;;;;;;;;;;13.18;36.49;100622.84;5087960;28;19970;-79
2021/09/18 12:39:06;;;;;;;;;;;;;;;12.96;36.58;100624.72;5080526;27;19921;-77
2021/09/18 12:52:10;;;;;;;;;;;;;;;12.57;37.76;100613.59;5082853;27;19921;-76
2021/09/18 12:55:06;;;;;;;;;;;;;;;12.63;37.72;100622.28;5058233;27;19921;-81
2021/09/18 12:58:09;;;;;;;;;;;;;;;12.60;36.65;100604.00;5089487;27;20180;-77
2021/09/18 13:01:36;;;;;;;;;;;;;;;12.37;38.17;100617.13;5050609;27;20274;-77
2021/09/18 13:04:29;;;;;;;;;;;;;;;12.41;37.99;100615.41;5073925;27;19982;-78
2021/09/18 13:07:09;;;;;;;;;;;;;;;12.40;37.87;100614.50;5075303;27;19928;-78
2021/09/18 13:10:26;;;;;;;;;;;;;;;12.34;38.17;100617.16;5070045;27;19990;-79
2021/09/18 13:13:35;;;;;;;;;;;;;;;12.39;38.53;100612.78;5069128;28;20014;-79
2021/09/18 13:16:22;;;;;;;;;;;;;;;12.44;38.33;100607.56;5068381;27;20025;-77
2021/09/18 13:33:19;;;;;;;;;;;;;;;11.68;39.84;100608.53;5069150;27;19940;-78
2021/09/18 13:36:09;;;;;;;;;;;;;;;11.65;40.12;100605.94;5054883;28;19986;-80
2021/09/18 13:39:04;;;;;;;;;;;;;;;11.75;40.45;100609.41;5075403;27;19978;-78
2021/09/18 13:52:32;;;;;;;;;;;;;;;11.36;41.11;100603.34;6297912;22;19959;-78
2021/09/18 13:55:08;;;;;;;;;;;;;;;11.35;41.35;100599.88;5074082;27;2124759;-79
2021/09/18 13:57:45;;;;;;;;;;;;;;;11.32;41.02;100593.78;5101176;27;19924;-80
2021/09/18 14:00:23;;;;;;;;;;;;;;;11.29;41.40;100597.25;5054317;27;19929;-79
2021/09/18 14:03:00;;;;;;;;;;;;;;;11.24;41.83;100592.03;4588509;27;15511626;-80
2021/09/18 14:05:49;;;;;;;;;;;;;;;11.13;41.71;100592.03;5120245;27;19923;-79
2021/09/18 14:08:33;;;;;;;;;;;;;;;11.11;41.46;100604.19;5049663;28;19951;-81
2021/09/18 14:11:14;;;;;;;;;;;;;;;10.99;41.96;100605.03;5079248;27;20040;-79
2021/09/18 14:13:58;;;;;;;;;;;;;;;10.86;42.56;100598.03;5098446;27;19923;-79